createdAt,value
2023-02-16T00:00:03.997Z,96472.4
2023-02-16T00:01:07.069Z,96466.7
2023-02-16T00:02:09.773Z,96470.7
2023-02-16T00:03:12.263Z,96472.6
2023-02-16T00:04:14.368Z,96472.7
2023-02-16T00:05:16.587Z,96475.3
2023-02-16T00:06:19.075Z,96474
2023-02-16T00:07:21.304Z,96471.8
2023-02-16T00:08:23.822Z,96472.9
2023-02-16T00:09:26.069Z,96474.1
2023-02-16T00:10:28.580Z,96474.7
2023-02-16T00:11:31.073Z,96478.3
2023-02-16T00:12:33.598Z,96476.5
2023-02-16T00:13:36.115Z,96478
2023-02-16T00:14:38.713Z,96476.8
2023-02-16T00:15:41.445Z,96476.8
2023-02-16T00:16:43.735Z,96475.1
2023-02-16T00:17:46.261Z,96474.6
2023-02-16T00:18:48.505Z,96472.6
2023-02-16T00:19:51.010Z,96471.8
2023-02-16T00:20:53.524Z,96472
2023-02-16T00:21:56.034Z,96468.9
2023-02-16T00:22:58.552Z,96464.7
2023-02-16T00:24:01.111Z,96458.8
2023-02-16T00:25:03.678Z,96463.1
2023-02-16T00:26:05.906Z,96456.4
2023-02-16T00:27:08.110Z,96452.6
2023-02-16T00:28:10.629Z,96452.8
2023-02-16T00:29:12.854Z,96452.2
2023-02-16T00:30:15.710Z,96448.4
2023-02-16T00:31:19.093Z,96444.7
2023-02-16T00:32:22.326Z,96449.4
2023-02-16T00:33:24.933Z,96450.5
2023-02-16T00:34:27.440Z,96445.5
2023-02-16T00:35:29.945Z,96442.8
2023-02-16T00:36:32.437Z,96440
2023-02-16T00:37:34.924Z,96436.1
2023-02-16T00:38:37.128Z,96439.7
2023-02-16T00:39:39.633Z,96434.8
2023-02-16T00:40:41.927Z,96434.5
2023-02-16T00:41:44.494Z,96435.4
2023-02-16T00:42:47.033Z,96432.1
2023-02-16T00:43:49.543Z,96432
2023-02-16T00:44:52.064Z,96434.5
2023-02-16T00:45:54.487Z,96432.8
2023-02-16T00:46:56.885Z,96431.5
2023-02-16T00:47:59.414Z,96427.7
2023-02-16T00:49:01.954Z,96429.7
2023-02-16T00:50:04.444Z,96428.1
2023-02-16T00:52:11.908Z,96433.1
2023-02-16T00:53:14.439Z,96433.6
2023-02-16T00:54:16.678Z,96424.8
2023-02-16T00:55:19.201Z,96428.2
2023-02-16T00:56:21.409Z,96428.4
2023-02-16T00:57:23.657Z,96423.2
2023-02-16T00:58:26.369Z,96420.5
2023-02-16T00:59:28.654Z,96418.4
2023-02-16T01:00:31.216Z,96417.9
2023-02-16T01:01:34.195Z,96416.3
2023-02-16T01:02:36.807Z,96415.7
2023-02-16T01:03:39.170Z,96414
2023-02-16T01:04:41.648Z,96422.5
2023-02-16T01:05:44.025Z,96426
2023-02-16T01:06:46.275Z,96425.8
2023-02-16T01:07:48.237Z,96422.4
2023-02-16T01:08:50.755Z,96422.2
2023-02-16T01:09:52.691Z,96418.7
2023-02-16T01:10:54.370Z,96419.2
2023-02-16T01:11:56.609Z,96423.5
2023-02-16T01:12:58.915Z,96422.8
2023-02-16T01:14:01.136Z,96428.4
2023-02-16T01:15:03.645Z,96435
2023-02-16T01:16:05.905Z,96427.7
2023-02-16T01:17:08.287Z,96437.6
2023-02-16T01:18:10.874Z,96435
2023-02-16T01:19:13.166Z,96436
2023-02-16T01:20:15.670Z,96435.1
2023-02-16T01:21:18.182Z,96435.1
2023-02-16T01:22:20.122Z,96433
2023-02-16T01:23:22.634Z,96429.3
2023-02-16T01:24:24.317Z,96432.2
2023-02-16T01:25:26.557Z,96438.9
2023-02-16T01:26:29.095Z,96442.7
2023-02-16T01:27:31.594Z,96438.3
2023-02-16T01:28:34.072Z,96441.5
2023-02-16T01:29:36.587Z,96441.4
2023-02-16T01:30:38.810Z,96444.2
2023-02-16T01:31:41.991Z,96449.7
2023-02-16T01:32:44.746Z,96440.6
2023-02-16T01:33:47.455Z,96442.6
2023-02-16T01:34:49.763Z,96441.1
2023-02-16T01:35:52.054Z,96443.8
2023-02-16T01:36:54.608Z,96444.8
2023-02-16T01:37:56.860Z,96445.1
2023-02-16T01:38:59.355Z,96442.3
2023-02-16T01:40:01.854Z,96447
2023-02-16T01:41:05.799Z,96443.2
2023-02-16T01:42:08.242Z,96441
2023-02-16T01:43:10.512Z,96445.9
2023-02-16T01:44:13.083Z,96441.5
2023-02-16T01:45:15.610Z,96437.4
2023-02-16T01:46:17.852Z,96443.9
2023-02-16T01:47:20.149Z,96442.3
2023-02-16T01:48:22.729Z,96444.7
2023-02-16T01:49:25.065Z,96444.9
2023-02-16T01:50:27.585Z,96443.9
2023-02-16T01:51:29.870Z,96443.2
2023-02-16T01:52:31.536Z,96440
2023-02-16T01:53:34.098Z,96443.3
2023-02-16T01:54:36.604Z,96444.8
2023-02-16T01:55:39.142Z,96445
2023-02-16T01:56:41.113Z,96436.7
2023-02-16T01:57:43.674Z,96443.1
2023-02-16T01:58:46.164Z,96436
2023-02-16T01:59:48.421Z,96440
2023-02-16T02:00:50.958Z,96435.7
2023-02-16T02:01:53.395Z,96439.5
2023-02-16T02:02:56.185Z,96438.7
2023-02-16T02:03:59.111Z,96440.6
2023-02-16T02:05:01.727Z,96438.7
2023-02-16T02:06:04.270Z,96439.7
2023-02-16T02:07:06.793Z,96436.8
2023-02-16T02:08:09.309Z,96436.8
2023-02-16T02:09:11.819Z,96433.3
2023-02-16T02:10:14.377Z,96432.9
2023-02-16T02:11:16.878Z,96431.5
2023-02-16T02:12:19.112Z,96429.6
2023-02-16T02:13:21.633Z,96429.1
2023-02-16T02:14:24.199Z,96425.3
2023-02-16T02:15:26.712Z,96429.8
2023-02-16T02:16:29.622Z,96427.3
2023-02-16T02:17:32.193Z,96426.5
2023-02-16T02:18:34.709Z,96423.1
2023-02-16T02:19:36.941Z,96424.1
2023-02-16T02:20:39.624Z,96425.5
2023-02-16T02:21:42.158Z,96424.5
2023-02-16T02:22:44.387Z,96427.8
2023-02-16T02:23:46.631Z,96424.2
2023-02-16T02:24:49.155Z,96423
2023-02-16T02:25:51.655Z,96419.6
2023-02-16T02:26:53.612Z,96421
2023-02-16T02:27:55.836Z,96416.9
2023-02-16T02:28:58.049Z,96416.5
2023-02-16T02:30:00.785Z,96417.8
2023-02-16T02:31:05.460Z,96415.8
2023-02-16T02:32:09.041Z,96417.5
2023-02-16T02:33:11.677Z,96418.8
2023-02-16T02:34:14.176Z,96414.9
2023-02-16T02:35:16.703Z,96416.2
2023-02-16T02:36:19.374Z,96410.2
2023-02-16T02:37:21.970Z,96419.1
2023-02-16T02:38:24.513Z,96415
2023-02-16T02:39:26.458Z,96414.1
2023-02-16T02:40:28.954Z,96411.6
2023-02-16T02:41:31.451Z,96413.3
2023-02-16T02:42:33.958Z,96412
2023-02-16T02:43:36.438Z,96411.6
2023-02-16T02:44:38.965Z,96407.2
2023-02-16T02:45:41.480Z,96413.8
2023-02-16T02:46:44.194Z,96411.9
2023-02-16T02:47:46.573Z,96408.3
2023-02-16T02:48:49.088Z,96408.7
2023-02-16T02:49:51.603Z,96406.9
2023-02-16T02:50:54.114Z,96406
2023-02-16T02:51:56.715Z,96408.1
2023-02-16T02:52:59.261Z,96406.4
2023-02-16T02:54:01.480Z,96407.4
2023-02-16T02:55:03.746Z,96407
2023-02-16T02:56:05.396Z,96405.3
2023-02-16T02:57:07.917Z,96407.3
2023-02-16T02:58:10.542Z,96403.9
2023-02-16T02:59:13.077Z,96402.9
2023-02-16T03:00:15.305Z,96407.7
2023-02-16T03:01:17.977Z,96403.9
2023-02-16T03:02:20.868Z,96397.2
2023-02-16T03:03:23.210Z,96404
2023-02-16T03:04:25.710Z,96399.4
2023-02-16T03:05:28.223Z,96399.8
2023-02-16T03:06:30.814Z,96401
2023-02-16T03:07:33.411Z,96398.6
2023-02-16T03:08:35.625Z,96394.9
2023-02-16T03:09:38.122Z,96400
2023-02-16T03:10:40.372Z,96405.3
2023-02-16T03:11:42.359Z,96405
2023-02-16T03:12:44.324Z,96405.8
2023-02-16T03:13:46.831Z,96405.7
2023-02-16T03:14:49.066Z,96404.1
2023-02-16T03:15:51.563Z,96401.3
2023-02-16T03:16:54.064Z,96403.1
2023-02-16T03:17:56.586Z,96401.8
2023-02-16T03:18:59.066Z,96401.5
2023-02-16T03:20:01.305Z,96400
2023-02-16T03:21:05.303Z,96401.1
2023-02-16T03:22:08.110Z,96396.9
2023-02-16T03:23:10.658Z,96397.4
2023-02-16T03:24:12.912Z,96397.5
2023-02-16T03:25:15.146Z,96397.2
2023-02-16T03:26:17.706Z,96396
2023-02-16T03:27:20.215Z,96401.7
2023-02-16T03:28:22.473Z,96401.8
2023-02-16T03:29:24.964Z,96406.3
2023-02-16T03:30:28.225Z,96401.7
2023-02-16T03:31:31.583Z,96401.5
2023-02-16T03:32:34.320Z,96406.7
2023-02-16T03:33:36.559Z,96408
2023-02-16T03:34:39.092Z,96403.5
2023-02-16T03:35:41.574Z,96404.2
2023-02-16T03:36:44.089Z,96406.9
2023-02-16T03:37:46.709Z,96406.7
2023-02-16T03:38:48.735Z,96409.1
2023-02-16T03:39:51.383Z,96408.8
2023-02-16T03:40:53.909Z,96407.9
2023-02-16T03:41:56.430Z,96410
2023-02-16T03:42:59.064Z,96414.2
2023-02-16T03:44:01.049Z,96411.9
2023-02-16T03:45:03.559Z,96408.8
2023-02-16T03:46:06.272Z,96405.8
2023-02-16T03:47:08.888Z,96410.4
2023-02-16T03:48:11.423Z,96414.3
2023-02-16T03:49:13.399Z,96410.6
2023-02-16T03:50:15.901Z,96412.1
2023-02-16T03:51:17.877Z,96409.6
2023-02-16T03:52:20.389Z,96418.3
2023-02-16T03:53:23.022Z,96417.5
2023-02-16T03:54:25.686Z,96418.5
2023-02-16T03:55:28.235Z,96419.3
2023-02-16T03:56:30.766Z,96420.3
2023-02-16T03:57:33.309Z,96421.9
2023-02-16T03:58:35.808Z,96422
2023-02-16T03:59:38.018Z,96419.3
2023-02-16T04:00:40.262Z,96424.4
2023-02-16T04:01:42.349Z,96425.6
2023-02-16T04:02:44.872Z,96424.3
2023-02-16T04:03:47.666Z,96430.7
2023-02-16T04:04:50.261Z,96426.3
2023-02-16T04:05:52.796Z,96428.2
2023-02-16T04:06:54.996Z,96429.9
2023-02-16T04:07:57.222Z,96431.1
2023-02-16T04:08:59.810Z,96427.5
2023-02-16T04:10:02.777Z,96427.4
2023-02-16T04:11:06.751Z,96425.1
2023-02-16T04:12:09.235Z,96426.4
2023-02-16T04:13:11.466Z,96420.7
2023-02-16T04:14:13.958Z,96428.5
2023-02-16T04:15:16.491Z,96428.1
2023-02-16T04:16:19.137Z,96427.9
2023-02-16T04:17:21.384Z,96432.5
2023-02-16T04:18:23.887Z,96429.5
2023-02-16T04:19:26.408Z,96426.9
2023-02-16T04:20:28.640Z,96427.4
2023-02-16T04:21:31.156Z,96428.8
2023-02-16T04:22:33.130Z,96428.1
2023-02-16T04:23:35.670Z,96430.5
2023-02-16T04:24:37.926Z,96427.7
2023-02-16T04:25:40.492Z,96428.3
2023-02-16T04:26:43.056Z,96429.8
2023-02-16T04:27:45.595Z,96426.4
2023-02-16T04:28:48.100Z,96426.7
2023-02-16T04:29:50.040Z,96428.8
2023-02-16T04:30:52.697Z,96426.8
2023-02-16T04:31:55.817Z,96429.8
2023-02-16T04:32:58.599Z,96431.6
2023-02-16T04:34:01.094Z,96429.5
2023-02-16T04:35:03.576Z,96422
2023-02-16T04:36:05.556Z,96423.4
2023-02-16T04:37:08.075Z,96428
2023-02-16T04:38:10.276Z,96426
2023-02-16T04:39:12.497Z,96425
2023-02-16T04:40:14.970Z,96422.7
2023-02-16T04:41:17.428Z,96425.7
2023-02-16T04:42:19.966Z,96428.9
2023-02-16T04:43:22.167Z,96428
2023-02-16T04:44:24.652Z,96427.2
2023-02-16T04:45:26.906Z,96426.4
2023-02-16T04:46:29.639Z,96426
2023-02-16T04:47:32.252Z,96432.9
2023-02-16T04:48:34.737Z,96428.6
2023-02-16T04:49:37.268Z,96425.6
2023-02-16T04:50:39.252Z,96426.7
2023-02-16T04:51:41.476Z,96423.5
2023-02-16T04:52:43.968Z,96424.7
2023-02-16T04:53:45.929Z,96428.2
2023-02-16T04:54:48.160Z,96428.7
2023-02-16T04:55:50.734Z,96428.3
2023-02-16T04:56:53.427Z,96430.4
2023-02-16T04:57:55.974Z,96432.7
2023-02-16T04:58:58.461Z,96425.8
2023-02-16T05:00:00.737Z,96428.4
2023-02-16T05:01:05.647Z,96430.2
2023-02-16T05:02:08.630Z,96434
2023-02-16T05:03:11.133Z,96431.7
2023-02-16T05:04:13.998Z,96430.5
2023-02-16T05:05:16.540Z,96427.3
2023-02-16T05:06:19.069Z,96425.4
2023-02-16T05:07:21.698Z,96429.1
2023-02-16T05:08:24.204Z,96427
2023-02-16T05:09:26.732Z,96427.7
2023-02-16T05:10:29.232Z,96426.4
2023-02-16T05:11:31.826Z,96427.8
2023-02-16T05:12:34.518Z,96432.4
2023-02-16T05:13:37.038Z,96430.6
2023-02-16T05:14:39.276Z,96430
2023-02-16T05:15:42.027Z,96429.3
2023-02-16T05:16:44.572Z,96426.7
2023-02-16T05:17:47.067Z,96427.4
2023-02-16T05:18:49.581Z,96432.8
2023-02-16T05:19:51.795Z,96430.8
2023-02-16T05:20:54.022Z,96429.4
2023-02-16T05:21:56.329Z,96430.1
2023-02-16T05:22:58.845Z,96431.2
2023-02-16T05:24:01.359Z,96429.8
2023-02-16T05:25:03.888Z,96426.3
2023-02-16T05:26:06.132Z,96429.6
2023-02-16T05:27:08.367Z,96429.9
2023-02-16T05:28:11.214Z,96428.6
2023-02-16T05:29:13.754Z,96432.2
2023-02-16T05:30:16.303Z,96430.1
2023-02-16T05:31:19.277Z,96429
2023-02-16T05:32:22.036Z,96431.6
2023-02-16T05:33:24.417Z,96435.8
2023-02-16T05:34:26.941Z,96440
2023-02-16T05:35:29.489Z,96434.4
2023-02-16T05:36:32.009Z,96437
2023-02-16T05:37:34.516Z,96432.8
2023-02-16T05:38:36.760Z,96437.3
2023-02-16T05:39:39.255Z,96436.5
2023-02-16T05:40:41.781Z,96438.3
2023-02-16T05:41:44.010Z,96437.3
2023-02-16T05:42:46.242Z,96439.4
2023-02-16T05:43:48.826Z,96440.3
2023-02-16T05:44:51.431Z,96442.7
2023-02-16T05:45:54.181Z,96441.6
2023-02-16T05:46:56.483Z,96440.7
2023-02-16T05:47:58.731Z,96443.3
2023-02-16T05:49:01.220Z,96446.5
2023-02-16T05:50:03.439Z,96447.3
2023-02-16T05:51:06.924Z,96453.3
2023-02-16T05:52:09.153Z,96449.3
2023-02-16T05:53:11.637Z,96454.1
2023-02-16T05:54:14.124Z,96454.9
2023-02-16T05:55:16.702Z,96454.5
2023-02-16T05:56:19.192Z,96457.2
2023-02-16T05:57:21.697Z,96461.8
2023-02-16T05:58:23.695Z,96458.7
2023-02-16T05:59:26.271Z,96461.1
2023-02-16T06:00:28.833Z,96461.4
2023-02-16T06:01:31.343Z,96463.9
2023-02-16T06:02:34.034Z,96462.2
2023-02-16T06:03:37.098Z,96465.3
2023-02-16T06:04:39.724Z,96461.8
2023-02-16T06:05:42.289Z,96464.8
2023-02-16T06:06:44.808Z,96469.3
2023-02-16T06:07:47.344Z,96468.5
2023-02-16T06:08:49.840Z,96468.2
2023-02-16T06:09:52.079Z,96471
2023-02-16T06:10:54.317Z,96470.2
2023-02-16T06:11:56.841Z,96466.4
2023-02-16T06:12:59.340Z,96464.1
2023-02-16T06:14:01.618Z,96468.3
2023-02-16T06:15:03.935Z,96467.7
2023-02-16T06:16:06.712Z,96467.3
2023-02-16T06:17:09.402Z,96474.7
2023-02-16T06:18:11.642Z,96471.3
2023-02-16T06:19:13.635Z,96475.8
2023-02-16T06:20:16.141Z,96476
2023-02-16T06:21:18.642Z,96475.9
2023-02-16T06:22:21.189Z,96474.4
2023-02-16T06:23:23.692Z,96473.1
2023-02-16T06:24:25.936Z,96480.8
2023-02-16T06:25:28.492Z,96477.5
2023-02-16T06:26:31.123Z,96477
2023-02-16T06:27:33.655Z,96479.4
2023-02-16T06:28:35.887Z,96479.6
2023-02-16T06:29:38.455Z,96481.2
2023-02-16T06:30:41.042Z,96478.6
2023-02-16T06:31:44.138Z,96478.9
2023-02-16T06:32:46.370Z,96480.5
2023-02-16T06:33:48.634Z,96480.4
2023-02-16T06:34:51.139Z,96484.1
2023-02-16T06:35:53.639Z,96481.6
2023-02-16T06:36:55.879Z,96485.8
2023-02-16T06:37:58.096Z,96487.4
2023-02-16T06:39:00.657Z,96484.2
2023-02-16T06:40:02.920Z,96482.9
2023-02-16T06:41:07.015Z,96482
2023-02-16T06:42:09.321Z,96485.3
2023-02-16T06:43:11.824Z,96490.3
2023-02-16T06:44:14.359Z,96489.6
2023-02-16T06:45:16.613Z,96484.5
2023-02-16T06:46:19.050Z,96489.4
2023-02-16T06:47:21.685Z,96485.8
2023-02-16T06:48:23.916Z,96490.1
2023-02-16T06:50:31.446Z,96494.8
2023-02-16T06:51:33.986Z,96496.3
2023-02-16T06:52:36.203Z,96496.3
2023-02-16T06:53:38.419Z,96498.9
2023-02-16T06:54:40.937Z,96500.8
2023-02-16T06:55:43.171Z,96497.2
2023-02-16T06:56:45.886Z,96499.5
2023-02-16T06:57:48.506Z,96495.8
2023-02-16T06:58:51.256Z,96500.8
2023-02-16T06:59:53.812Z,96499.5
2023-02-16T07:00:56.355Z,96497.6
2023-02-16T07:01:59.186Z,96499.6
2023-02-16T07:03:01.462Z,96503.8
2023-02-16T07:04:04.204Z,96499.1
2023-02-16T07:05:06.502Z,96497
2023-02-16T07:06:08.755Z,96498.8
2023-02-16T07:07:11.335Z,96500.1
2023-02-16T07:08:13.920Z,96502.6
2023-02-16T07:09:16.431Z,96500.6
2023-02-16T07:10:18.666Z,96501.3
2023-02-16T07:11:21.206Z,96501.5
2023-02-16T07:12:23.713Z,96497.6
2023-02-16T07:13:25.981Z,96496.2
2023-02-16T07:14:28.400Z,96498.6
2023-02-16T07:15:30.642Z,96498.4
2023-02-16T07:16:33.517Z,96499.9
2023-02-16T07:17:36.257Z,96500.3
2023-02-16T07:18:39.020Z,96496.4
2023-02-16T07:19:41.034Z,96499.3
2023-02-16T07:20:43.262Z,96502.4
2023-02-16T07:21:45.794Z,96502.1
2023-02-16T07:22:47.452Z,96503.6
2023-02-16T07:23:49.706Z,96508.8
2023-02-16T07:24:52.250Z,96505.7
2023-02-16T07:25:54.766Z,96507.6
2023-02-16T07:26:57.266Z,96509.9
2023-02-16T07:27:59.778Z,96507.8
2023-02-16T07:29:02.015Z,96509.6
2023-02-16T07:30:04.503Z,96516.3
2023-02-16T07:31:08.968Z,96519.8
2023-02-16T07:32:12.108Z,96516.4
2023-02-16T07:33:14.546Z,96516.5
2023-02-16T07:34:17.083Z,96512.4
2023-02-16T07:35:20.839Z,96514.1
2023-02-16T07:36:22.955Z,96518.6
2023-02-16T07:37:25.222Z,96514.5
2023-02-16T07:38:27.723Z,96511.3
2023-02-16T07:39:29.985Z,96514.7
2023-02-16T07:40:32.237Z,96516.3
2023-02-16T07:41:34.733Z,96514.6
2023-02-16T07:42:36.683Z,96517.6
2023-02-16T07:43:39.287Z,96515.8
2023-02-16T07:44:41.829Z,96514.3
2023-02-16T07:45:44.525Z,96515.8
2023-02-16T07:46:47.120Z,96519.6
2023-02-16T07:47:49.714Z,96523.8
2023-02-16T07:48:52.341Z,96530.4
2023-02-16T07:49:54.332Z,96525.8
2023-02-16T07:50:56.828Z,96527.7
2023-02-16T07:51:59.358Z,96524.5
2023-02-16T07:53:01.848Z,96526.4
2023-02-16T07:54:04.064Z,96525.8
2023-02-16T07:55:06.293Z,96526.7
2023-02-16T07:56:08.531Z,96526.4
2023-02-16T07:57:11.076Z,96531.4
2023-02-16T07:58:13.626Z,96534.1
2023-02-16T07:59:15.857Z,96526.8
2023-02-16T08:00:18.382Z,96533.4
2023-02-16T08:01:20.695Z,96524.4
2023-02-16T08:02:23.343Z,96530.8
2023-02-16T08:03:27.112Z,96531.6
2023-02-16T08:04:30.066Z,96529.8
2023-02-16T08:05:32.632Z,96532
2023-02-16T08:06:35.135Z,96534.5
2023-02-16T08:07:37.410Z,96531.1
2023-02-16T08:08:39.644Z,96533.3
2023-02-16T08:09:42.163Z,96531.3
2023-02-16T08:10:44.103Z,96535
2023-02-16T08:11:46.626Z,96535.4
2023-02-16T08:12:49.239Z,96537.4
2023-02-16T08:13:51.312Z,96532.9
2023-02-16T08:14:53.860Z,96536
2023-02-16T08:15:56.411Z,96536.1
2023-02-16T08:16:59.226Z,96535.1
2023-02-16T08:18:01.534Z,96535.3
2023-02-16T08:19:03.819Z,96539.9
2023-02-16T08:20:06.484Z,96534.2
2023-02-16T08:21:09.093Z,96542.3
2023-02-16T08:22:11.375Z,96543.7
2023-02-16T08:23:13.601Z,96544.2
2023-02-16T08:24:15.833Z,96540.7
2023-02-16T08:25:18.338Z,96540.7
2023-02-16T08:26:20.591Z,96543
2023-02-16T08:27:22.862Z,96543.1
2023-02-16T08:28:25.370Z,96543.1
2023-02-16T08:29:27.881Z,96538.2
2023-02-16T08:30:30.666Z,96536.6
2023-02-16T08:31:33.631Z,96538.3
2023-02-16T08:32:35.744Z,96538.5
2023-02-16T08:33:38.261Z,96537
2023-02-16T08:35:45.843Z,96539.8
2023-02-16T08:36:48.383Z,96535
2023-02-16T08:37:50.904Z,96537.8
2023-02-16T08:38:53.422Z,96539.3
2023-02-16T08:39:55.404Z,96534.6
2023-02-16T08:40:57.938Z,96537.3
2023-02-16T08:42:00.168Z,96535.9
2023-02-16T08:43:02.394Z,96531.8
2023-02-16T08:44:04.903Z,96532.4
2023-02-16T08:45:07.476Z,96536.9
2023-02-16T08:46:10.158Z,96532.4
2023-02-16T08:47:12.436Z,96535.7
2023-02-16T08:48:14.945Z,96538.7
2023-02-16T08:49:17.170Z,96537.9
2023-02-16T08:50:19.718Z,96537.5
2023-02-16T08:51:22.016Z,96537.9
2023-02-16T08:52:24.565Z,96535.4
2023-02-16T08:53:26.803Z,96534.6
2023-02-16T08:54:29.088Z,96529.4
2023-02-16T08:55:31.658Z,96530.6
2023-02-16T08:56:33.941Z,96531.7
2023-02-16T08:57:36.505Z,96532.8
2023-02-16T08:58:39.065Z,96536.1
2023-02-16T08:59:42.223Z,96532.3
2023-02-16T09:00:44.879Z,96532.4
2023-02-16T09:01:46.870Z,96534.6
2023-02-16T09:02:49.748Z,96536.2
2023-02-16T09:03:52.041Z,96533.3
2023-02-16T09:04:54.554Z,96533.3
2023-02-16T09:05:57.087Z,96529.1
2023-02-16T09:06:59.792Z,96531.9
2023-02-16T09:08:02.323Z,96531.8
2023-02-16T09:09:04.563Z,96536.1
2023-02-16T09:10:07.185Z,96536.5
2023-02-16T09:11:09.736Z,96536.3
2023-02-16T09:12:12.030Z,96536
2023-02-16T09:13:14.559Z,96534.1
2023-02-16T09:14:16.965Z,96534.4
2023-02-16T09:15:18.938Z,96534.7
2023-02-16T09:16:21.624Z,96532.3
2023-02-16T09:17:23.902Z,96533.1
2023-02-16T09:18:26.402Z,96538.9
2023-02-16T09:19:29.090Z,96536.2
2023-02-16T09:20:31.602Z,96536.5
2023-02-16T09:21:34.202Z,96533.6
2023-02-16T09:22:36.709Z,96537.8
2023-02-16T09:23:38.976Z,96537.8
2023-02-16T09:24:41.233Z,96538.1
2023-02-16T09:25:43.776Z,96541
2023-02-16T09:26:46.432Z,96542
2023-02-16T09:27:48.974Z,96541.4
2023-02-16T09:28:51.548Z,96540.3
2023-02-16T09:29:54.178Z,96542.8
2023-02-16T09:30:57.074Z,96539.6
2023-02-16T09:31:59.646Z,96540.5
2023-02-16T09:33:01.787Z,96537.3
2023-02-16T09:34:04.052Z,96539.9
2023-02-16T09:35:06.037Z,96542.2
2023-02-16T09:36:08.636Z,96539.1
2023-02-16T09:37:11.085Z,96538.5
2023-02-16T09:38:13.481Z,96540
2023-02-16T09:39:16.016Z,96543.5
2023-02-16T09:40:18.282Z,96540
2023-02-16T09:41:20.237Z,96541.7
2023-02-16T09:42:22.202Z,96541.1
2023-02-16T09:43:24.711Z,96544.1
2023-02-16T09:44:26.938Z,96539.2
2023-02-16T09:45:29.140Z,96538.2
2023-02-16T09:46:31.744Z,96538.2
2023-02-16T09:47:34.057Z,96540.5
2023-02-16T09:48:36.742Z,96532.9
2023-02-16T09:49:38.990Z,96534.1
2023-02-16T09:51:46.499Z,96533
2023-02-16T09:52:52.116Z,96531.4
2023-02-16T09:53:56.266Z,96531.3
2023-02-16T09:54:58.592Z,96534.9
2023-02-16T09:56:01.100Z,96535.5
2023-02-16T09:57:03.672Z,96530.1
2023-02-16T09:58:06.159Z,96532.3
2023-02-16T09:59:10.757Z,96533.9
2023-02-16T10:00:14.060Z,96531.2
2023-02-16T10:01:16.742Z,96532.5
2023-02-16T10:02:18.916Z,96531.6
2023-02-16T10:03:21.701Z,96531.2
2023-02-16T10:04:23.720Z,96527.3
2023-02-16T10:05:26.272Z,96532.5
2023-02-16T10:06:28.525Z,96533.9
2023-02-16T10:07:31.063Z,96533.9
2023-02-16T10:08:33.602Z,96532.3
2023-02-16T10:09:36.406Z,96534.1
2023-02-16T10:11:43.947Z,96537.3
2023-02-16T10:12:46.449Z,96538.3
2023-02-16T10:13:48.938Z,96534.8
2023-02-16T10:14:51.454Z,96538.3
2023-02-16T10:15:54.847Z,96533.4
2023-02-16T10:16:57.421Z,96537.6
2023-02-16T10:17:59.942Z,96540.8
2023-02-16T10:19:02.513Z,96540.9
2023-02-16T10:20:05.047Z,96538.7
2023-02-16T10:21:08.448Z,96533
2023-02-16T10:22:10.726Z,96534.8
2023-02-16T10:23:12.965Z,96531.7
2023-02-16T10:24:15.504Z,96537.4
2023-02-16T10:25:17.821Z,96534.7
2023-02-16T10:26:20.376Z,96537
2023-02-16T10:27:22.600Z,96537
2023-02-16T10:28:25.152Z,96537.1
2023-02-16T10:29:27.405Z,96537.2
2023-02-16T10:30:30.224Z,96542.1
2023-02-16T10:31:33.161Z,96541.4
2023-02-16T10:33:40.847Z,96538
2023-02-16T10:34:43.065Z,96539.9
2023-02-16T10:35:45.594Z,96538.3
2023-02-16T10:36:48.102Z,96538.8
2023-02-16T10:37:50.607Z,96538.5
2023-02-16T10:38:53.009Z,96530.4
2023-02-16T10:39:55.529Z,96537.9
2023-02-16T10:40:58.258Z,96537
2023-02-16T10:42:00.532Z,96532.8
2023-02-16T10:43:03.036Z,96536.2
2023-02-16T10:44:05.537Z,96539
2023-02-16T10:45:08.037Z,96533.8
2023-02-16T10:46:10.800Z,96532.4
2023-02-16T10:47:13.212Z,96535.9
2023-02-16T10:48:15.732Z,96532.9
2023-02-16T10:49:17.990Z,96532.7
2023-02-16T10:50:20.488Z,96540.3
2023-02-16T10:52:28.934Z,96529.6
2023-02-16T10:53:31.330Z,96528.5
2023-02-16T10:54:33.888Z,96529.3
2023-02-16T10:55:36.427Z,96529.6
2023-02-16T10:56:39.032Z,96524.6
2023-02-16T10:57:41.384Z,96524.9
2023-02-16T10:58:43.892Z,96520.1
2023-02-16T10:59:46.454Z,96524.2
2023-02-16T11:00:48.986Z,96524.7
2023-02-16T11:01:51.475Z,96523.3
2023-02-16T11:02:54.230Z,96520.1
2023-02-16T11:03:56.729Z,96520.4
2023-02-16T11:04:59.022Z,96521.9
2023-02-16T11:06:01.654Z,96522.4
2023-02-16T11:07:04.844Z,96523.1
2023-02-16T11:08:06.875Z,96520.6
2023-02-16T11:09:09.391Z,96524.8
2023-02-16T11:10:11.959Z,96525.4
2023-02-16T11:11:14.498Z,96525.7
2023-02-16T11:12:17.084Z,96516.8
2023-02-16T11:13:19.647Z,96516.8
2023-02-16T11:14:21.870Z,96517.2
2023-02-16T11:15:24.399Z,96515.5
2023-02-16T11:16:26.904Z,96515.4
2023-02-16T11:17:29.132Z,96515
2023-02-16T11:18:31.658Z,96510.3
2023-02-16T11:19:34.181Z,96507.3
2023-02-16T11:20:36.414Z,96505.3
2023-02-16T11:21:38.617Z,96503.9
2023-02-16T11:22:41.181Z,96495.1
2023-02-16T11:23:43.696Z,96497.2
2023-02-16T11:24:45.923Z,96497
2023-02-16T11:25:48.477Z,96497.7
2023-02-16T11:26:50.721Z,96491
2023-02-16T11:27:53.293Z,96497
2023-02-16T11:28:55.862Z,96489.1
2023-02-16T11:29:58.432Z,96491.2
2023-02-16T11:31:01.553Z,96496.1
2023-02-16T11:32:04.755Z,96493.7
2023-02-16T11:33:06.721Z,96492.9
2023-02-16T11:34:09.271Z,96489.8
2023-02-16T11:35:11.963Z,96493.8
2023-02-16T11:36:14.461Z,96484.9
2023-02-16T11:37:16.997Z,96491.6
2023-02-16T11:38:19.501Z,96485.5
2023-02-16T11:39:21.808Z,96487
2023-02-16T11:40:23.804Z,96480.3
2023-02-16T11:41:26.301Z,96482.3
2023-02-16T11:42:28.292Z,96480.8
2023-02-16T11:43:30.898Z,96484.2
2023-02-16T11:44:33.655Z,96481.8
2023-02-16T11:45:36.209Z,96477.5
2023-02-16T11:46:38.990Z,96476.1
2023-02-16T11:47:41.154Z,96472.7
2023-02-16T11:48:43.635Z,96477.6
2023-02-16T11:49:45.866Z,96470.7
2023-02-16T11:50:48.386Z,96472.7
2023-02-16T11:51:50.660Z,96473.7
2023-02-16T11:52:53.196Z,96465.6
2023-02-16T11:53:55.713Z,96467.6
2023-02-16T11:54:58.358Z,96467.4
2023-02-16T11:56:00.614Z,96470.8
2023-02-16T11:57:03.131Z,96471.5
2023-02-16T11:58:05.711Z,96461
2023-02-16T11:59:08.033Z,96460.6
2023-02-16T12:00:10.556Z,96473.1
2023-02-16T12:01:13.088Z,96462.6
2023-02-16T12:02:15.618Z,96466
2023-02-16T12:03:17.852Z,96462.4
2023-02-16T12:04:20.406Z,96462.8
2023-02-16T12:05:22.704Z,96453.4
2023-02-16T12:06:24.451Z,96455.1
2023-02-16T12:07:26.973Z,96452
2023-02-16T12:08:29.466Z,96458.2
2023-02-16T12:09:32.689Z,96447.4
2023-02-16T12:10:35.210Z,96439.3
2023-02-16T12:11:37.733Z,96444.1
2023-02-16T12:12:40.262Z,96434.9
2023-02-16T12:13:42.797Z,96437
2023-02-16T12:14:45.424Z,96435.6
2023-02-16T12:15:47.967Z,96434.5
2023-02-16T12:16:50.305Z,96438.8
2023-02-16T12:17:52.520Z,96436.7
2023-02-16T12:18:54.783Z,96438.7
2023-02-16T12:19:57.017Z,96431.7
2023-02-16T12:20:59.282Z,96431.7
2023-02-16T12:22:01.217Z,96433.3
2023-02-16T12:23:03.737Z,96431.2
2023-02-16T12:24:05.997Z,96434.6
2023-02-16T12:25:08.515Z,96431.3
2023-02-16T12:26:10.771Z,96430.1
2023-02-16T12:27:12.726Z,96424.9
2023-02-16T12:28:15.275Z,96429.3
2023-02-16T12:29:17.821Z,96427.8
2023-02-16T12:30:20.607Z,96428.1
2023-02-16T12:31:23.914Z,96424.6
2023-02-16T12:32:26.357Z,96425.6
2023-02-16T12:33:28.886Z,96426.2
2023-02-16T12:34:31.209Z,96433.9
2023-02-16T12:35:33.754Z,96426.3
2023-02-16T12:36:35.995Z,96425.4
2023-02-16T12:37:38.279Z,96423.1
2023-02-16T12:38:40.522Z,96423.3
2023-02-16T12:39:42.778Z,96423.4
2023-02-16T12:40:45.003Z,96420.5
2023-02-16T12:41:47.523Z,96425.8
2023-02-16T12:42:50.055Z,96424
2023-02-16T12:43:52.569Z,96417.1
2023-02-16T12:44:55.158Z,96415.8
2023-02-16T12:45:57.977Z,96418.8
2023-02-16T12:47:00.603Z,96414.3
2023-02-16T12:48:03.113Z,96417.5